Ibapah, Utah
Current Conditions -  °F | °C
As of 12:15 PM on Thursday 23 Oct 2014 (Local Time) from KENV Reporting Station
Clear Clear  
Wind Chill: 55°   Ceiling: Unl
Heat Index: 55°   Visibility: NA
Dew Point: 30°   Wind: 5mph
Humidity: 38%   Direction: 80°E
Pressure: 30.15"   Gusts: NA
Location:  40.04°N, 113.99°W
Report Text: KENV 231815Z AUTO 08004KT CLR 13/M01 A3015 RMK AO1
Loading
Personal Weather Stations






























Interactive Weather Map
Tropical Storm Tracking
New forecast layout! Learn more

10-Day Weather Forecast

Advertisements
Track Severe Weather on mobile